Jacksonville, FL (32229)

7:40 PM EST on December 10, 2016 (GMT -0500)
Historic Springfield | | Change Station

Elev 37 ft 30.35 °N, 81.66 °W | Updated 20 seconds ago

Mostly Cloudy
Mostly Cloudy
54.7 °F
Feels Like 54.7 °F
N
5.1
Wind Variable Wind from North
Gusts 7.4 mph

Today
High -- | Low -- °F
--% Chance of Precip.
Yesterday
High -- | Low -- °F
Precip. -- in
Pressure 30.38 in
Visibility 10.0 miles
Clouds Mostly Cloudy 3000 ft
Dew Point 53 °F
Humidity 95%
Rainfall 0.00 in
Snow Depth Not available.
7:12 AM 5:26 PM
Waxing Gibbous, 87% visible
METAR KNIP 102353Z 01010KT 10SM BKN030 13/08 A3040 RMK AO2 SLP288 T01280083 10156 20128 50002 $
Pressure 30.38 in
Visibility 10.0 miles
Clouds Mostly Cloudy 3000 ft
Dew Point 53 °F
Humidity 95%
Rainfall 0.00 in
Snow Depth Not available.
7:12 AM 5:26 PM
Waxing Gibbous, 87% visible
METAR KNIP 102353Z 01010KT 10SM BKN030 13/08 A3040 RMK AO2 SLP288 T01280083 10156 20128 50002 $

10-Day Weather Forecast

Almanac

Astronomy

Dec. 10, 2016 Rise Set
Actual Time
Civil Twilight
Nautical Twilight
Astronomical Twilight
Moon
Length of Visible Light
Length of Day
Tomorrow will be .
, % of the Moon is Illuminated

Today's Extremes

State Highs State Lows

Community

WunderPhotos

Upload Photos

1,956,685 photos uploaded!

WunderBlog® & News

Nearby

Air Quality

  Air Quality AQ Index Pollutant
Not available.

Snow Depth

Station Depth Elevation

Earthquake Activity

City Distance Mag. Time & Date
Minimum magnitude displayed is 2.5.

Coastal Water Temperatures

Place Temperature

Stations

Nearby Weather Stations

Station Location Temp. Windchill Dew Point Humidity Wind Precip. Elev Updated Type
                   

Watches & Warnings

There are currently no watches in effect.